Time;durP1;ratioP1;P1;durP2;ratioP2;P2;SDS_P1;SDS_P2;PMS_P1;PMS_P2;Temp;Humidity;BMP_temperature;BMP_pressure;BME280_temperature;BME280_humidity;BME280_pressure;Samples;Min_cycle;Max_cycle;Signal;HPM_P1;HPM_P2
2023/03/25 00:01:02;;;;;;;9.15;2.42;;;9.90;99.90;;;;;;5054132;28;20262;-57
2023/03/25 00:03:32;;;;;;;5.97;1.90;;;9.90;99.90;;;;;;5053963;28;20176;-57
2023/03/25 00:05:59;;;;;;;4.97;1.77;;;10.00;99.90;;;;;;5054015;28;20171;-59
2023/03/25 00:08:25;;;;;;;8.07;2.53;;;9.90;99.90;;;;;;5053698;28;20168;-57
2023/03/25 00:10:56;;;;;;;4.80;1.70;;;9.80;99.90;;;;;;5053682;28;20565;-57
2023/03/25 00:13:22;;;;;;;6.38;2.10;;;9.70;99.90;;;;;;5053938;28;20206;-57
2023/03/25 00:15:52;;;;;;;5.97;1.88;;;9.70;99.90;;;;;;5053871;28;20682;-57
2023/03/25 00:18:19;;;;;;;5.47;1.50;;;9.70;99.90;;;;;;5052447;28;20171;-57
2023/03/25 00:20:48;;;;;;;8.10;2.22;;;9.70;99.90;;;;;;5053735;28;20218;-56
2023/03/25 00:23:18;;;;;;;5.25;1.67;;;9.60;99.90;;;;;;5053785;28;20560;-59
2023/03/25 00:25:44;;;;;;;6.03;1.80;;;9.60;99.90;;;;;;5052096;28;20164;-57
2023/03/25 00:28:13;;;;;;;5.30;1.63;;;9.60;99.90;;;;;;5053648;28;20164;-57
2023/03/25 00:30:40;;;;;;;3.63;1.42;;;9.80;99.90;;;;;;5053262;28;20606;-58
2023/03/25 00:33:09;;;;;;;3.97;1.70;;;9.80;99.90;;;;;;5053393;28;20233;-57
2023/03/25 00:35:37;;;;;;;3.78;1.60;;;9.70;99.90;;;;;;5053223;28;20655;-57
2023/03/25 00:38:03;;;;;;;4.32;1.73;;;9.70;99.90;;;;;;5053245;28;20203;-58
2023/03/25 00:40:35;;;;;;;4.25;2.13;;;9.60;99.90;;;;;;5053446;28;20218;-57
2023/03/25 00:43:02;;;;;;;5.65;1.85;;;9.60;99.90;;;;;;5053429;28;20167;-57
2023/03/25 00:45:28;;;;;;;4.82;1.80;;;9.60;99.90;;;;;;5053300;28;20175;-57
2023/03/25 00:47:54;;;;;;;3.60;1.70;;;9.70;99.90;;;;;;5053196;28;20545;-57
2023/03/25 00:50:20;;;;;;;4.05;1.48;;;9.70;99.90;;;;;;5053081;28;20179;-57
2023/03/25 00:52:47;;;;;;;3.90;1.73;;;9.80;99.90;;;;;;5052193;28;20632;-57
2023/03/25 00:55:13;;;;;;;4.68;1.90;;;9.70;99.90;;;;;;5053283;28;20187;-57
2023/03/25 00:57:38;;;;;;;3.92;1.45;;;9.70;99.90;;;;;;5051962;28;20216;-57
2023/03/25 01:00:07;;;;;;;2.72;1.67;;;9.70;99.90;;;;;;5053402;28;20690;-57
2023/03/25 01:02:33;;;;;;;3.92;2.00;;;9.70;99.90;;;;;;5053050;28;20182;-57
2023/03/25 01:04:59;;;;;;;4.70;1.95;;;9.70;99.90;;;;;;5052929;28;20183;-57
2023/03/25 01:07:28;;;;;;;3.85;2.10;;;9.80;99.90;;;;;;5051633;28;20171;-57
2023/03/25 01:09:54;;;;;;;3.70;1.70;;;9.80;99.90;;;;;;5053050;28;20215;-58
2023/03/25 01:12:20;;;;;;;6.25;1.95;;;9.80;99.90;;;;;;5053020;28;20676;-57
2023/03/25 01:14:46;;;;;;;5.45;1.90;;;9.70;99.90;;;;;;5052934;28;20193;-57
2023/03/25 01:17:11;;;;;;;3.38;2.08;;;9.70;99.90;;;;;;5052878;28;20179;-57
2023/03/25 01:19:37;;;;;;;5.53;2.42;;;9.70;99.90;;;;;;5052829;28;20190;-57
2023/03/25 01:22:03;;;;;;;7.22;1.88;;;9.70;99.90;;;;;;5052761;28;20187;-58
2023/03/25 01:24:29;;;;;;;5.68;2.03;;;9.70;99.90;;;;;;5053097;28;20218;-57
2023/03/25 01:26:54;;;;;;;5.28;2.03;;;9.70;99.90;;;;;;5052830;28;20633;-58
2023/03/25 01:29:20;;;;;;;5.53;1.92;;;9.60;99.90;;;;;;5052845;28;20632;-57
2023/03/25 01:31:47;;;;;;;6.47;2.58;;;9.60;99.90;;;;;;5052876;28;20242;-57
2023/03/25 01:34:14;;;;;;;5.68;2.22;;;9.60;99.90;;;;;;5052696;28;20175;-57
2023/03/25 01:36:45;;;;;;;6.10;2.10;;;9.60;99.90;;;;;;5052477;28;20270;-57
2023/03/25 01:39:15;;;;;;;6.38;2.20;;;9.70;99.90;;;;;;5053097;28;20179;-57
2023/03/25 01:41:41;;;;;;;6.40;2.28;;;9.60;99.90;;;;;;5052550;28;20183;-57
2023/03/25 01:44:29;;;;;;;6.57;2.17;;;9.60;99.90;;;;;;5052711;28;20200;-58
2023/03/25 01:46:57;;;;;;;8.65;2.50;;;9.60;99.90;;;;;;5041209;28;20183;-57
2023/03/25 01:49:39;;;;;;;8.32;2.50;;;9.60;99.90;;;;;;5052713;28;20179;-57
2023/03/25 01:52:10;;;;;;;7.45;2.40;;;9.60;99.90;;;;;;5052862;28;20566;-58
2023/03/25 01:54:37;;;;;;;8.20;2.63;;;9.60;99.90;;;;;;5052551;28;20767;-57
2023/03/25 01:57:05;;;;;;;7.63;2.25;;;9.50;99.90;;;;;;5052529;28;20266;-57
2023/03/25 01:59:31;;;;;;;8.43;2.83;;;9.60;99.90;;;;;;5052482;28;20175;-57
2023/03/25 02:02:01;;;;;;;7.68;2.45;;;9.70;99.90;;;;;;5052655;28;20667;-57
2023/03/25 02:04:37;;;;;;;9.95;2.90;;;9.60;99.90;;;;;;5055811;28;20258;-58
2023/03/25 02:07:07;;;;;;;11.27;2.58;;;9.60;99.90;;;;;;5056202;28;20175;-58
2023/03/25 02:09:33;;;;;;;7.53;2.90;;;9.60;99.90;;;;;;5056131;28;20202;-57
2023/03/25 02:11:59;;;;;;;9.27;2.55;;;9.60;99.90;;;;;;5055952;28;20195;-57
2023/03/25 02:14:29;;;;;;;7.43;2.78;;;9.50;99.90;;;;;;5056096;28;20182;-58
2023/03/25 02:17:00;;;;;;;8.30;2.50;;;9.50;99.90;;;;;;5056152;28;20172;-58
2023/03/25 02:20:10;;;;;;;9.05;2.97;;;9.60;99.90;;;;;;5055880;28;20186;-59
2023/03/25 02:22:48;;;;;;;11.50;2.83;;;9.60;99.90;;;;;;5055698;28;20186;-57
2023/03/25 02:25:48;;;;;;;7.57;2.70;;;9.60;99.90;;;;;;5055806;28;20171;-58
2023/03/25 02:28:24;;;;;;;11.20;3.03;;;9.70;99.90;;;;;;5055649;28;20171;-58
2023/03/25 02:30:56;;;;;;;9.88;2.90;;;9.60;99.90;;;;;;5055478;28;20692;-59
2023/03/25 02:33:40;;;;;;;7.88;2.88;;;9.70;99.90;;;;;;5055586;28;20217;-58
2023/03/25 02:36:43;;;;;;;9.85;3.10;;;9.60;99.90;;;;;;5055657;28;20179;-58
2023/03/25 02:39:31;;;;;;;9.75;3.78;;;9.60;99.90;;;;;;5055392;28;20167;-57
2023/03/25 02:42:24;;;;;;;9.13;3.50;;;9.70;99.90;;;;;;5055641;28;20198;-57
2023/03/25 02:45:06;;;;;;;10.60;3.25;;;9.80;99.90;;;;;;5055618;28;20163;-58
2023/03/25 02:47:40;;;;;;;9.55;3.28;;;9.80;99.90;;;;;;5055232;28;20659;-57
2023/03/25 02:50:30;;;;;;;6.63;2.80;;;9.70;99.90;;;;;;5055431;28;20618;-57
2023/03/25 02:53:01;;;;;;;8.32;2.90;;;9.70;99.90;;;;;;5055390;28;20191;-57
2023/03/25 02:55:32;;;;;;;9.13;3.10;;;9.60;99.90;;;;;;5055397;28;20212;-58
2023/03/25 02:58:03;;;;;;;9.23;2.92;;;9.60;99.90;;;;;;5055152;28;20313;-58
2023/03/25 03:00:30;;;;;;;8.95;3.00;;;9.70;99.90;;;;;;5055304;28;20246;-57
2023/03/25 03:03:03;;;;;;;12.18;2.92;;;9.70;99.90;;;;;;5055163;28;20813;-57
2023/03/25 03:05:35;;;;;;;9.38;3.08;;;9.60;99.90;;;;;;5055140;28;20171;-57
2023/03/25 03:08:19;;;;;;;8.60;2.58;;;9.50;99.90;;;;;;5054944;28;20179;-57
2023/03/25 03:11:09;;;;;;;9.13;2.83;;;9.40;99.90;;;;;;5054952;28;20349;-57
2023/03/25 03:13:41;;;;;;;7.18;2.40;;;9.40;99.90;;;;;;5055420;28;20163;-57
2023/03/25 03:16:29;;;;;;;7.38;2.53;;;9.30;99.90;;;;;;5054059;28;20262;-58
2023/03/25 03:19:20;;;;;;;8.43;2.60;;;9.30;99.90;;;;;;5053616;28;20528;-58
2023/03/25 03:22:13;;;;;;;8.35;2.92;;;9.30;99.90;;;;;;5054725;28;20182;-58
2023/03/25 03:24:50;;;;;;;7.22;2.97;;;9.40;99.90;;;;;;5054518;28;20250;-58
2023/03/25 03:27:32;;;;;;;8.63;2.90;;;9.40;99.90;;;;;;5054571;28;20266;-58
2023/03/25 03:30:37;;;;;;;8.20;2.95;;;9.30;99.90;;;;;;5054744;28;20220;-58
2023/03/25 03:33:14;;;;;;;8.23;2.90;;;9.40;99.90;;;;;;5053267;28;20194;-58
2023/03/25 03:35:48;;;;;;;8.10;3.17;;;9.40;99.90;;;;;;5054450;28;20637;-58
2023/03/25 03:38:16;;;;;;;9.93;3.67;;;9.40;99.90;;;;;;5054456;28;20257;-58
2023/03/25 03:40:48;;;;;;;9.23;3.88;;;9.40;99.90;;;;;;5054302;28;20204;-57
2023/03/25 03:43:23;;;;;;;9.82;3.47;;;9.40;99.90;;;;;;5054380;28;20167;-58
2023/03/25 03:45:54;;;;;;;11.63;3.35;;;9.40;99.90;;;;;;5054266;28;20166;-57
2023/03/25 03:48:36;;;;;;;10.18;3.25;;;9.40;99.90;;;;;;5054352;28;20250;-58
2023/03/25 03:51:09;;;;;;;7.95;3.15;;;9.40;99.90;;;;;;5054162;28;20234;-58
2023/03/25 03:53:42;;;;;;;7.53;3.28;;;9.40;99.90;;;;;;5054247;28;20173;-58
2023/03/25 03:56:36;;;;;;;7.60;2.88;;;9.40;99.90;;;;;;5053996;28;20175;-58
2023/03/25 03:59:10;;;;;;;10.88;3.00;;;9.50;99.90;;;;;;5054274;28;20254;-58
2023/03/25 04:01:52;;;;;;;7.63;2.92;;;9.50;99.90;;;;;;5053866;28;20586;-58
2023/03/25 04:04:22;;;;;;;6.38;2.80;;;9.50;99.90;;;;;;5052805;28;20167;-57
2023/03/25 04:07:00;;;;;;;8.25;2.92;;;9.40;99.90;;;;;;5053718;28;20173;-57
2023/03/25 04:09:45;;;;;;;10.23;3.40;;;9.40;99.90;;;;;;5054026;28;20177;-58
2023/03/25 04:12:19;;;;;;;8.43;3.70;;;9.40;99.90;;;;;;5053652;28;20570;-58
2023/03/25 04:14:45;;;;;;;9.13;3.25;;;9.40;99.90;;;;;;5053797;28;20166;-57
2023/03/25 04:17:12;;;;;;;7.80;3.03;;;9.40;99.90;;;;;;5053472;28;20206;-58
2023/03/25 04:19:38;;;;;;;8.70;3.25;;;9.40;99.90;;;;;;5054084;28;20175;-60
2023/03/25 04:22:05;;;;;;;8.40;3.03;;;9.40;99.90;;;;;;5052629;28;20506;-59
2023/03/25 04:24:32;;;;;;;8.50;3.00;;;9.30;99.90;;;;;;5053256;28;20223;-57
2023/03/25 04:27:02;;;;;;;7.22;2.92;;;9.30;99.90;;;;;;5053439;28;20544;-58
2023/03/25 04:29:32;;;;;;;7.93;2.65;;;9.30;99.90;;;;;;5052195;28;20225;-59
2023/03/25 04:31:58;;;;;;;6.72;2.53;;;9.30;99.90;;;;;;5053536;28;20198;-57
2023/03/25 04:34:25;;;;;;;5.63;2.28;;;9.30;99.90;;;;;;5052369;28;20559;-57
2023/03/25 04:36:52;;;;;;;9.48;2.65;;;9.30;99.90;;;;;;5053444;28;20167;-59
2023/03/25 04:39:21;;;;;;;7.03;2.10;;;9.30;99.90;;;;;;5053422;28;20179;-57
2023/03/25 04:41:48;;;;;;;4.70;2.22;;;9.30;99.90;;;;;;5053307;28;20270;-57
2023/03/25 04:44:15;;;;;;;7.50;2.10;;;9.30;99.90;;;;;;5053184;28;20595;-59
2023/03/25 04:46:41;;;;;;;5.60;1.77;;;9.30;99.90;;;;;;5053314;28;20321;-58
2023/03/25 04:49:16;;;;;;;6.47;1.88;;;9.20;99.90;;;;;;5053320;28;20258;-58
2023/03/25 04:51:43;;;;;;;6.40;2.08;;;9.20;99.90;;;;;;5053206;28;20559;-58
2023/03/25 04:54:09;;;;;;;6.90;2.00;;;9.20;99.90;;;;;;5053330;28;20237;-58
2023/03/25 04:56:35;;;;;;;12.70;2.50;;;9.20;99.90;;;;;;5053121;28;20167;-59
2023/03/25 04:59:01;;;;;;;7.10;1.65;;;9.20;99.90;;;;;;5053054;28;20172;-58
2023/03/25 05:01:31;;;;;;;7.05;1.98;;;9.30;99.90;;;;;;5053190;28;20179;-58
2023/03/25 05:04:04;;;;;;;8.43;2.35;;;9.30;99.90;;;;;;5053342;28;20171;-57
2023/03/25 05:06:37;;;;;;;6.95;2.00;;;9.20;99.90;;;;;;5052959;28;20643;-58
2023/03/25 05:09:06;;;;;;;6.88;1.92;;;9.30;99.90;;;;;;5053028;28;20172;-59
2023/03/25 05:11:38;;;;;;;5.25;1.77;;;9.20;99.90;;;;;;5052940;28;20199;-57
2023/03/25 05:14:15;;;;;;;6.80;2.08;;;9.20;99.90;;;;;;5053154;28;20225;-58
2023/03/25 05:16:41;;;;;;;6.32;1.98;;;9.10;99.90;;;;;;5053115;28;20226;-58
2023/03/25 05:19:07;;;;;;;6.43;1.92;;;9.10;99.90;;;;;;5052911;28;20180;-58
2023/03/25 05:21:37;;;;;;;4.65;1.90;;;9.20;99.90;;;;;;5052976;28;20313;-58
2023/03/25 05:24:07;;;;;;;8.13;2.03;;;9.20;99.90;;;;;;5052911;28;20313;-58
2023/03/25 05:26:33;;;;;;;7.70;2.38;;;9.20;99.90;;;;;;5053098;28;20171;-58
2023/03/25 05:29:14;;;;;;;8.52;2.47;;;9.10;99.90;;;;;;5052812;28;20648;-57
2023/03/25 05:31:41;;;;;;;9.38;2.70;;;9.00;99.90;;;;;;5052793;28;20645;-58
2023/03/25 05:34:07;;;;;;;9.35;2.72;;;8.90;99.90;;;;;;5052696;28;20198;-58
2023/03/25 05:36:33;;;;;;;9.82;3.08;;;8.90;99.90;;;;;;5052647;28;20228;-57
2023/03/25 05:38:59;;;;;;;14.07;2.95;;;9.00;99.90;;;;;;5055518;28;20696;-58
2023/03/25 05:41:31;;;;;;;7.68;2.75;;;8.90;99.90;;;;;;5056588;28;20305;-58
2023/03/25 05:43:59;;;;;;;8.45;2.30;;;9.00;99.90;;;;;;5056658;28;20175;-58
2023/03/25 05:46:27;;;;;;;6.97;2.50;;;8.90;99.90;;;;;;5056559;28;20225;-58
2023/03/25 05:48:53;;;;;;;9.60;2.90;;;8.80;99.90;;;;;;5056238;28;20559;-58
2023/03/25 05:51:20;;;;;;;11.30;2.88;;;8.90;99.90;;;;;;5056557;28;20211;-58
2023/03/25 05:53:48;;;;;;;9.43;2.90;;;8.80;99.90;;;;;;5056438;28;20278;-58
2023/03/25 05:56:16;;;;;;;9.23;3.35;;;8.80;99.90;;;;;;5056413;28;20182;-59
2023/03/25 05:58:43;;;;;;;12.77;2.72;;;8.90;99.90;;;;;;5056239;28;20183;-58
2023/03/25 06:01:12;;;;;;;11.02;2.88;;;8.90;99.90;;;;;;5056327;28;20179;-59
2023/03/25 06:03:39;;;;;;;11.35;2.92;;;9.00;99.90;;;;;;5056007;28;20191;-59
2023/03/25 06:06:12;;;;;;;13.77;3.03;;;9.10;99.90;;;;;;5056310;28;20179;-59
2023/03/25 06:08:48;;;;;;;13.77;3.42;;;9.10;99.90;;;;;;5054962;28;20640;-60
2023/03/25 06:11:16;;;;;;;14.77;3.22;;;9.10;99.90;;;;;;5056095;28;20211;-60
2023/03/25 06:13:48;;;;;;;8.55;3.13;;;9.20;99.90;;;;;;5054668;28;20229;-60
2023/03/25 06:16:22;;;;;;;10.80;2.97;;;9.20;99.90;;;;;;5055907;28;20498;-60
2023/03/25 06:18:50;;;;;;;15.52;4.05;;;9.30;99.90;;;;;;5054744;28;20254;-59
2023/03/25 06:21:19;;;;;;;15.02;3.25;;;9.30;99.90;;;;;;5055979;28;20176;-59
2023/03/25 06:23:48;;;;;;;8.20;3.08;;;9.20;99.90;;;;;;5056029;28;20227;-59
2023/03/25 06:26:14;;;;;;;13.18;3.20;;;9.20;99.90;;;;;;5054569;28;20548;-59
2023/03/25 06:28:40;;;;;;;14.70;3.63;;;9.30;99.90;;;;;;5055392;28;20175;-59
2023/03/25 06:31:16;;;;;;;11.68;3.47;;;9.30;99.90;;;;;;5055269;28;20571;-59
2023/03/25 06:33:46;;;;;;;13.43;3.70;;;9.40;99.90;;;;;;5055972;28;20171;-59
2023/03/25 06:36:17;;;;;;;13.57;3.78;;;9.40;99.90;;;;;;5055464;28;20632;-58
2023/03/25 06:38:44;;;;;;;9.82;3.03;;;9.50;99.90;;;;;;5055382;28;20232;-58
2023/03/25 06:41:10;;;;;;;14.02;3.70;;;9.50;99.90;;;;;;5055213;28;20183;-58
2023/03/25 06:43:36;;;;;;;12.57;3.80;;;9.60;99.90;;;;;;5055262;28;20660;-58
2023/03/25 06:46:02;;;;;;;14.50;4.20;;;9.70;99.90;;;;;;5055474;28;20179;-60
2023/03/25 06:48:27;;;;;;;12.07;3.65;;;9.70;99.90;;;;;;5055104;28;20202;-59
2023/03/25 06:50:53;;;;;;;12.40;3.22;;;9.60;99.90;;;;;;5053473;28;20337;-59
2023/03/25 06:53:19;;;;;;;12.93;3.20;;;9.60;99.90;;;;;;5035134;28;20278;-58
2023/03/25 06:55:45;;;;;;;11.88;3.50;;;9.70;99.90;;;;;;5035116;28;20546;-58
2023/03/25 06:58:11;;;;;;;11.50;3.67;;;9.70;99.90;;;;;;5040931;28;20183;-58
2023/03/25 07:00:37;;;;;;;10.50;3.20;;;9.80;99.90;;;;;;5054411;28;20263;-58
2023/03/25 07:03:03;;;;;;;15.55;4.25;;;9.80;99.90;;;;;;5054905;28;20172;-59
2023/03/25 07:05:29;;;;;;;14.20;4.20;;;9.80;99.90;;;;;;5052085;28;20230;-58
2023/03/25 07:07:54;;;;;;;13.27;3.78;;;9.80;99.90;;;;;;5051506;28;20187;-59
2023/03/25 07:10:20;;;;;;;14.60;3.88;;;9.90;99.90;;;;;;5053153;28;20209;-58
2023/03/25 07:12:46;;;;;;;13.07;4.07;;;10.00;99.90;;;;;;5054668;28;20349;-59
2023/03/25 07:15:12;;;;;;;14.38;4.18;;;10.00;99.90;;;;;;5036825;28;20180;-58
2023/03/25 07:17:38;;;;;;;14.05;4.13;;;10.00;99.90;;;;;;5053257;28;20171;-60
2023/03/25 07:20:05;;;;;;;16.95;3.95;;;10.00;99.90;;;;;;5053479;28;20181;-59
2023/03/25 07:22:31;;;;;;;20.63;5.03;;;10.10;99.90;;;;;;5053072;28;20218;-59
2023/03/25 07:24:57;;;;;;;16.73;4.10;;;10.20;99.90;;;;;;5054517;28;20172;-59
2023/03/25 07:27:23;;;;;;;18.25;5.05;;;10.20;99.90;;;;;;5054502;28;20560;-59
2023/03/25 07:29:49;;;;;;;13.38;4.05;;;10.20;99.90;;;;;;5053152;28;20619;-58
2023/03/25 07:32:15;;;;;;;19.05;4.43;;;10.30;99.90;;;;;;5054476;28;20203;-59
2023/03/25 07:34:40;;;;;;;16.27;4.55;;;10.30;99.90;;;;;;5054492;28;20167;-59
2023/03/25 07:37:09;;;;;;;18.63;4.90;;;10.30;99.90;;;;;;5054377;28;20214;-59
2023/03/25 07:39:35;;;;;;;16.42;4.55;;;10.30;99.90;;;;;;5054083;28;20174;-59
2023/03/25 07:42:01;;;;;;;22.00;4.30;;;10.20;99.90;;;;;;5054422;28;20179;-59
2023/03/25 07:44:26;;;;;;;18.48;4.53;;;10.10;99.90;;;;;;5054345;28;20624;-59
2023/03/25 07:46:52;;;;;;;19.33;4.63;;;10.10;99.90;;;;;;5054348;28;20167;-59
2023/03/25 07:49:18;;;;;;;24.17;5.47;;;10.10;99.90;;;;;;5054098;28;20650;-59
2023/03/25 07:51:44;;;;;;;17.48;5.07;;;10.10;99.90;;;;;;5053854;28;20206;-58
2023/03/25 07:54:10;;;;;;;14.00;4.95;;;10.10;99.90;;;;;;5051925;28;20267;-58
2023/03/25 07:56:36;;;;;;;20.05;4.88;;;10.20;99.90;;;;;;5052571;28;20509;-58
2023/03/25 07:59:02;;;;;;;19.13;4.88;;;10.20;99.90;;;;;;5053835;28;20186;-58
2023/03/25 08:01:28;;;;;;;18.10;5.65;;;10.30;99.90;;;;;;5053255;28;20611;-58
2023/03/25 08:03:54;;;;;;;17.90;5.00;;;10.30;99.90;;;;;;5054195;28;20210;-59
2023/03/25 08:06:20;;;;;;;15.65;5.20;;;10.40;99.90;;;;;;5053845;28;20179;-59
2023/03/25 08:08:45;;;;;;;21.65;5.47;;;10.40;99.90;;;;;;5052944;28;20544;-59
2023/03/25 08:11:11;;;;;;;21.13;5.60;;;10.30;99.90;;;;;;5053758;28;20217;-59
2023/03/25 08:13:37;;;;;;;20.85;5.03;;;10.30;99.90;;;;;;5053487;28;20621;-58
2023/03/25 08:16:12;;;;;;;18.20;5.03;;;10.20;99.90;;;;;;5053702;28;20171;-59
2023/03/25 08:18:38;;;;;;;21.42;5.47;;;10.20;99.90;;;;;;5053000;28;20171;-59
2023/03/25 08:21:04;;;;;;;18.77;5.72;;;10.30;99.90;;;;;;5053353;28;20233;-58
2023/03/25 08:23:30;;;;;;;19.63;5.13;;;10.20;99.90;;;;;;5053008;28;20246;-59
2023/03/25 08:25:56;;;;;;;25.65;5.28;;;10.20;99.90;;;;;;5053110;28;20191;-59
2023/03/25 08:28:22;;;;;;;21.65;5.20;;;10.10;99.90;;;;;;5053382;28;20258;-58
2023/03/25 08:30:55;;;;;;;22.35;5.18;;;10.10;99.90;;;;;;5053174;28;20175;-58
2023/03/25 08:33:25;;;;;;;22.40;5.35;;;10.20;99.90;;;;;;5052631;28;20179;-59
2023/03/25 08:35:52;;;;;;;21.02;5.38;;;10.30;99.90;;;;;;5053130;28;20176;-58
2023/03/25 08:38:17;;;;;;;21.92;4.93;;;10.10;99.90;;;;;;5052998;28;20182;-58
2023/03/25 08:40:43;;;;;;;20.15;5.60;;;10.20;99.90;;;;;;5052784;28;20176;-58
2023/03/25 08:43:10;;;;;;;18.42;5.57;;;10.10;99.90;;;;;;5052778;28;20202;-58
2023/03/25 08:45:36;;;;;;;22.50;5.10;;;10.00;99.90;;;;;;5052700;28;20679;-59
2023/03/25 08:48:02;;;;;;;25.98;5.88;;;10.00;99.90;;;;;;5053088;28;20179;-59
2023/03/25 08:50:29;;;;;;;23.70;5.93;;;10.10;99.90;;;;;;5053051;28;20560;-59
2023/03/25 08:52:57;;;;;;;21.55;5.70;;;10.20;99.90;;;;;;5053196;28;20215;-58
2023/03/25 08:55:24;;;;;;;17.95;5.20;;;10.40;99.90;;;;;;5052175;28;20171;-59
2023/03/25 08:57:49;;;;;;;20.30;5.57;;;10.50;99.90;;;;;;5053159;28;20189;-58
2023/03/25 09:00:16;;;;;;;16.88;5.15;;;10.70;99.90;;;;;;5053106;28;20175;-58
2023/03/25 09:02:42;;;;;;;18.80;4.40;;;10.90;99.90;;;;;;5052325;28;20266;-58
2023/03/25 09:05:10;;;;;;;20.65;6.07;;;11.00;99.90;;;;;;5052898;28;20179;-58
2023/03/25 09:07:37;;;;;;;19.67;5.13;;;11.00;99.90;;;;;;5052220;28;20215;-59
2023/03/25 09:10:04;;;;;;;17.63;4.57;;;10.90;99.90;;;;;;5050922;28;20174;-58
2023/03/25 09:12:29;;;;;;;15.40;4.80;;;10.80;99.90;;;;;;5052690;28;20297;-58
2023/03/25 09:14:55;;;;;;;24.70;5.45;;;10.70;99.90;;;;;;5057231;28;20274;-59
2023/03/25 09:17:21;;;;;;;18.55;4.95;;;10.80;99.90;;;;;;5056510;28;20229;-59
2023/03/25 09:19:46;;;;;;;16.25;4.38;;;11.00;99.90;;;;;;5056902;28;20198;-58
2023/03/25 09:22:12;;;;;;;20.63;4.95;;;11.10;99.90;;;;;;5056755;28;20660;-59
2023/03/25 09:24:39;;;;;;;15.65;4.63;;;11.10;99.90;;;;;;5057187;28;20636;-58
2023/03/25 09:27:05;;;;;;;17.25;4.82;;;11.10;99.90;;;;;;5055804;28;20597;-58
2023/03/25 09:29:31;;;;;;;17.00;4.93;;;11.30;99.90;;;;;;5056471;28;20203;-58
2023/03/25 09:31:58;;;;;;;15.35;4.35;;;11.40;99.90;;;;;;5056624;28;20241;-59
2023/03/25 09:34:25;;;;;;;16.50;4.57;;;11.50;99.90;;;;;;5055339;28;20245;-58
2023/03/25 09:36:51;;;;;;;13.80;4.13;;;11.50;99.90;;;;;;5056892;28;20167;-58
2023/03/25 09:39:17;;;;;;;18.15;4.85;;;11.40;99.90;;;;;;5056758;28;20182;-58
2023/03/25 09:42:11;;;;;;;12.82;4.60;;;11.20;99.90;;;;;;5056661;28;20289;-58
2023/03/25 09:44:55;;;;;;;14.68;4.05;;;11.50;99.90;;;;;;5055244;28;20697;-58
2023/03/25 09:47:23;;;;;;;13.93;4.25;;;11.70;99.90;;;;;;5056630;28;20217;-58
2023/03/25 09:49:54;;;;;;;14.18;4.22;;;11.80;99.90;;;;;;5056657;28;20175;-58
2023/03/25 09:52:26;;;;;;;14.98;4.22;;;11.90;99.90;;;;;;5056510;28;20206;-58
2023/03/25 09:54:57;;;;;;;17.02;4.22;;;12.00;99.90;;;;;;5056363;28;20179;-58
2023/03/25 09:57:29;;;;;;;13.00;3.67;;;12.00;99.90;;;;;;5056568;28;20168;-59
2023/03/25 09:59:57;;;;;;;12.43;4.05;;;12.10;99.90;;;;;;5055224;28;20171;-58
2023/03/25 10:02:42;;;;;;;13.35;4.20;;;12.30;99.90;;;;;;5056569;28;20265;-59
2023/03/25 10:05:26;;;;;;;13.13;3.88;;;12.30;99.90;;;;;;5056297;28;20166;-59
2023/03/25 10:08:16;;;;;;;15.55;4.40;;;12.30;99.90;;;;;;5056352;28;20164;-58
2023/03/25 10:10:51;;;;;;;11.13;4.18;;;12.30;99.90;;;;;;5056355;28;20270;-58
2023/03/25 10:13:42;;;;;;;15.90;4.47;;;12.40;99.90;;;;;;5055942;28;20186;-58
2023/03/25 10:16:55;;;;;;;13.65;4.18;;;12.50;99.90;;;;;;5055892;28;20171;-60
2023/03/25 10:19:31;;;;;;;17.00;4.68;;;12.50;99.90;;;;;;5051481;28;20297;-60
2023/03/25 10:22:16;;;;;;;11.23;3.47;;;12.10;99.90;;;;;;5055385;28;20228;-59
2023/03/25 10:24:59;;;;;;;12.60;3.00;;;11.70;99.90;;;;;;5055565;28;20249;-59
2023/03/25 10:27:45;;;;;;;9.82;3.17;;;11.70;99.90;;;;;;5055901;28;20179;-60
2023/03/25 10:30:29;;;;;;;10.90;3.35;;;11.40;99.90;;;;;;5055719;28;20698;-59
2023/03/25 10:33:00;;;;;;;11.75;3.83;;;11.00;99.90;;;;;;5055521;28;20210;-58
2023/03/25 10:35:29;;;;;;;13.15;3.53;;;10.70;99.90;;;;;;5055722;28;20175;-59
2023/03/25 10:38:06;;;;;;;13.35;3.30;;;10.80;99.90;;;;;;5055562;28;20589;-59
2023/03/25 10:40:43;;;;;;;18.55;4.57;;;10.90;99.90;;;;;;5055556;28;20620;-59
2023/03/25 10:43:24;;;;;;;15.45;4.80;;;11.10;99.90;;;;;;5055288;28;20174;-60
2023/03/25 10:45:57;;;;;;;14.65;4.63;;;11.10;99.90;;;;;;5055631;28;20168;-59
2023/03/25 10:48:30;;;;;;;16.60;4.65;;;11.30;99.90;;;;;;5055386;28;20172;-59
2023/03/25 10:51:07;;;;;;;15.43;3.72;;;11.20;99.90;;;;;;5055205;28;20239;-59
2023/03/25 10:53:33;;;;;;;14.40;4.28;;;11.20;99.90;;;;;;5055273;28;20198;-59
2023/03/25 10:56:03;;;;;;;13.45;4.10;;;11.20;99.90;;;;;;5055394;28;20183;-60
2023/03/25 10:58:34;;;;;;;13.93;3.72;;;11.20;99.90;;;;;;5055350;28;20168;-59
2023/03/25 11:01:08;;;;;;;14.48;3.67;;;11.00;99.90;;;;;;5055148;28;20183;-60
2023/03/25 11:03:35;;;;;;;17.40;4.75;;;11.20;99.90;;;;;;5055020;28;20670;-60
2023/03/25 11:06:01;;;;;;;15.90;4.57;;;11.40;99.90;;;;;;5053596;28;20206;-59
2023/03/25 11:08:26;;;;;;;16.33;4.30;;;11.50;99.90;;;;;;5055134;28;20217;-59
2023/03/25 11:10:57;;;;;;;18.40;4.60;;;11.60;99.90;;;;;;5054913;28;20183;-59
2023/03/25 11:13:33;;;;;;;14.98;3.45;;;11.60;99.90;;;;;;5055017;28;20217;-60
2023/03/25 11:16:02;;;;;;;12.40;3.45;;;11.40;99.90;;;;;;5054898;28;20588;-60
2023/03/25 11:18:32;;;;;;;18.08;4.28;;;11.50;99.90;;;;;;5054705;28;20226;-59
2023/03/25 11:21:14;;;;;;;17.25;3.80;;;11.50;99.90;;;;;;5055025;28;20258;-59
2023/03/25 11:23:46;;;;;;;13.98;3.80;;;12.00;99.90;;;;;;5054501;28;20231;-59
2023/03/25 11:26:22;;;;;;;15.77;3.45;;;12.60;99.90;;;;;;5054785;28;20175;-60
2023/03/25 11:29:09;;;;;;;14.70;3.22;;;13.00;99.90;;;;;;5054494;28;20171;-60
2023/03/25 11:31:36;;;;;;;15.20;4.20;;;13.40;99.90;;;;;;5046904;28;20218;-60
2023/03/25 11:34:11;;;;;;;12.50;4.10;;;13.00;99.90;;;;;;5054655;28;20170;-59
2023/03/25 11:36:47;;;;;;;9.98;3.05;;;12.60;99.90;;;;;;5053764;28;20171;-60
2023/03/25 11:39:21;;;;;;;12.68;3.60;;;12.30;99.90;;;;;;5054418;28;20257;-59
2023/03/25 11:41:47;;;;;;;10.15;3.08;;;11.90;99.90;;;;;;5053352;28;20206;-59
2023/03/25 11:44:30;;;;;;;10.02;3.30;;;11.90;99.90;;;;;;5054429;28;20676;-60
2023/03/25 11:47:00;;;;;;;12.63;3.55;;;11.60;99.90;;;;;;5054336;28;20171;-59
2023/03/25 11:49:28;;;;;;;12.10;3.72;;;11.40;99.90;;;;;;5054120;28;20698;-59
2023/03/25 11:52:04;;;;;;;9.65;2.88;;;11.20;99.90;;;;;;5053906;28;20759;-59
2023/03/25 11:54:32;;;;;;;11.23;3.50;;;11.20;99.90;;;;;;5054593;28;20251;-59
2023/03/25 11:56:58;;;;;;;9.00;3.25;;;11.30;99.90;;;;;;5054267;28;20167;-59
2023/03/25 11:59:32;;;;;;;13.20;3.10;;;11.40;99.90;;;;;;5054139;28;20667;-59
2023/03/25 12:02:16;;;;;;;14.23;3.50;;;11.40;99.90;;;;;;5053993;28;20175;-60
2023/03/25 12:04:57;;;;;;;13.02;3.95;;;11.40;99.90;;;;;;5053945;28;20652;-59
2023/03/25 12:07:23;;;;;;;18.15;4.20;;;11.40;99.90;;;;;;5053944;28;20217;-60
2023/03/25 12:09:58;;;;;;;14.07;4.07;;;11.60;99.90;;;;;;5053872;28;20175;-59
2023/03/25 12:12:42;;;;;;;15.75;4.03;;;12.00;99.90;;;;;;5053829;28;20203;-59
2023/03/25 12:15:52;;;;;;;16.23;3.60;;;12.00;99.90;;;;;;5054240;28;20194;-59
2023/03/25 12:18:59;;;;;;;10.57;3.53;;;11.90;99.90;;;;;;5042997;28;20237;-59
2023/03/25 12:21:51;;;;;;;13.95;3.30;;;12.00;99.90;;;;;;5047941;28;20214;-59
2023/03/25 12:24:38;;;;;;;15.35;4.45;;;11.80;99.90;;;;;;5053079;28;20227;-59
2023/03/25 12:27:15;;;;;;;13.68;4.25;;;11.70;99.90;;;;;;5053476;28;20178;-59
2023/03/25 12:30:22;;;;;;;12.90;3.85;;;11.70;99.90;;;;;;5053722;28;20611;-59
2023/03/25 12:33:03;;;;;;;16.25;4.18;;;11.90;99.90;;;;;;5041659;28;20222;-59
2023/03/25 12:35:47;;;;;;;18.13;4.68;;;12.10;99.90;;;;;;5053323;28;20167;-59
2023/03/25 12:38:44;;;;;;;17.75;4.53;;;12.20;99.90;;;;;;5053653;28;20266;-59
2023/03/25 12:41:34;;;;;;;16.00;4.30;;;12.20;99.90;;;;;;5053373;28;20171;-59
2023/03/25 12:44:30;;;;;;;14.38;4.20;;;12.30;99.90;;;;;;5053225;28;20304;-59
2023/03/25 12:47:22;;;;;;;14.05;3.95;;;12.50;99.90;;;;;;5053224;28;20248;-59
2023/03/25 12:49:54;;;;;;;11.55;3.63;;;12.40;99.90;;;;;;5048760;28;20183;-60
2023/03/25 12:52:34;;;;;;;9.50;3.53;;;12.30;99.90;;;;;;5052956;28;20607;-59
2023/03/25 12:55:06;;;;;;;13.05;3.58;;;12.60;99.90;;;;;;5053244;28;20694;-59
2023/03/25 12:57:56;;;;;;;15.38;3.85;;;12.90;99.90;;;;;;5053113;28;20171;-59
2023/03/25 13:00:42;;;;;;;14.40;4.00;;;13.20;99.90;;;;;;5053120;28;20653;-59
2023/03/25 13:03:38;;;;;;;11.68;3.50;;;13.10;99.90;;;;;;5053290;28;20258;-59
2023/03/25 13:06:29;;;;;;;11.82;4.00;;;13.10;99.90;;;;;;5053108;28;20175;-59
2023/03/25 13:08:59;;;;;;;15.55;4.00;;;12.90;99.90;;;;;;5052065;28;20167;-59
2023/03/25 13:11:37;;;;;;;12.77;3.53;;;12.90;99.90;;;;;;5052037;28;20695;-59